sensor_id;sensor_type;location;lat;lon;timestamp;temperature;humidity
7894;DHT22;51343;51.396;6.656;2022-10-16T00:01:29;13.00;99.90
7894;DHT22;51343;51.396;6.656;2022-10-16T00:03:57;13.00;99.90
7894;DHT22;51343;51.396;6.656;2022-10-16T00:06:24;13.00;99.90
7894;DHT22;51343;51.396;6.656;2022-10-16T00:08:51;13.00;99.90
7894;DHT22;51343;51.396;6.656;2022-10-16T00:11:20;13.00;99.90
7894;DHT22;51343;51.396;6.656;2022-10-16T00:13:48;13.00;99.90
7894;DHT22;51343;51.396;6.656;2022-10-16T00:16:16;13.00;99.90
7894;DHT22;51343;51.396;6.656;2022-10-16T00:18:42;13.00;99.90
7894;DHT22;51343;51.396;6.656;2022-10-16T00:21:10;13.00;99.90
7894;DHT22;51343;51.396;6.656;2022-10-16T00:23:38;13.00;99.90
7894;DHT22;51343;51.396;6.656;2022-10-16T00:26:06;13.00;99.90
7894;DHT22;51343;51.396;6.656;2022-10-16T00:28:33;13.00;99.90
7894;DHT22;51343;51.396;6.656;2022-10-16T00:31:03;12.90;99.90
7894;DHT22;51343;51.396;6.656;2022-10-16T00:33:30;12.90;99.90
7894;DHT22;51343;51.396;6.656;2022-10-16T00:35:57;12.90;99.90
7894;DHT22;51343;51.396;6.656;2022-10-16T00:38:24;12.90;99.90
7894;DHT22;51343;51.396;6.656;2022-10-16T00:40:50;12.90;99.90
7894;DHT22;51343;51.396;6.656;2022-10-16T00:43:32;12.90;99.90
7894;DHT22;51343;51.396;6.656;2022-10-16T00:45:59;12.90;99.90
7894;DHT22;51343;51.396;6.656;2022-10-16T00:48:28;12.90;99.90
7894;DHT22;51343;51.396;6.656;2022-10-16T00:50:55;12.90;99.90
7894;DHT22;51343;51.396;6.656;2022-10-16T00:53:22;12.90;99.90
7894;DHT22;51343;51.396;6.656;2022-10-16T00:55:49;12.90;99.90
7894;DHT22;51343;51.396;6.656;2022-10-16T00:58:16;12.80;99.90
7894;DHT22;51343;51.396;6.656;2022-10-16T01:00:43;12.80;99.90
7894;DHT22;51343;51.396;6.656;2022-10-16T01:03:22;12.80;99.90
7894;DHT22;51343;51.396;6.656;2022-10-16T01:05:54;12.80;99.90
7894;DHT22;51343;51.396;6.656;2022-10-16T01:08:26;12.80;99.90
7894;DHT22;51343;51.396;6.656;2022-10-16T01:10:54;12.80;99.90
7894;DHT22;51343;51.396;6.656;2022-10-16T01:13:24;12.80;99.90
7894;DHT22;51343;51.396;6.656;2022-10-16T01:15:53;12.70;99.90
7894;DHT22;51343;51.396;6.656;2022-10-16T01:18:22;12.70;99.90
7894;DHT22;51343;51.396;6.656;2022-10-16T01:20:55;12.70;99.90
7894;DHT22;51343;51.396;6.656;2022-10-16T01:23:27;12.70;99.90
7894;DHT22;51343;51.396;6.656;2022-10-16T01:25:59;12.70;99.90
7894;DHT22;51343;51.396;6.656;2022-10-16T01:28:29;12.70;99.90
7894;DHT22;51343;51.396;6.656;2022-10-16T01:30:58;12.80;99.90
7894;DHT22;51343;51.396;6.656;2022-10-16T01:33:28;12.80;99.90
7894;DHT22;51343;51.396;6.656;2022-10-16T01:35:58;12.80;99.90
7894;DHT22;51343;51.396;6.656;2022-10-16T01:38:25;12.90;99.90
7894;DHT22;51343;51.396;6.656;2022-10-16T01:40:56;13.00;99.90
7894;DHT22;51343;51.396;6.656;2022-10-16T01:43:25;13.10;99.90
7894;DHT22;51343;51.396;6.656;2022-10-16T01:45:54;13.10;99.90
7894;DHT22;51343;51.396;6.656;2022-10-16T01:48:21;13.20;99.90
7894;DHT22;51343;51.396;6.656;2022-10-16T01:50:56;13.20;99.90
7894;DHT22;51343;51.396;6.656;2022-10-16T01:53:23;13.20;99.90
7894;DHT22;51343;51.396;6.656;2022-10-16T01:55:50;13.30;99.90
7894;DHT22;51343;51.396;6.656;2022-10-16T01:58:18;13.40;99.90
7894;DHT22;51343;51.396;6.656;2022-10-16T02:00:45;13.40;99.90
7894;DHT22;51343;51.396;6.656;2022-10-16T02:03:16;13.40;99.90
7894;DHT22;51343;51.396;6.656;2022-10-16T02:05:45;13.30;99.90
7894;DHT22;51343;51.396;6.656;2022-10-16T02:08:12;13.40;99.90
7894;DHT22;51343;51.396;6.656;2022-10-16T02:10:39;13.40;99.90
7894;DHT22;51343;51.396;6.656;2022-10-16T02:13:06;13.30;99.90
7894;DHT22;51343;51.396;6.656;2022-10-16T02:15:34;13.30;99.90
7894;DHT22;51343;51.396;6.656;2022-10-16T02:18:01;13.30;99.90
7894;DHT22;51343;51.396;6.656;2022-10-16T02:20:30;13.30;99.90
7894;DHT22;51343;51.396;6.656;2022-10-16T02:22:59;13.30;99.90
7894;DHT22;51343;51.396;6.656;2022-10-16T02:25:29;13.40;99.90
7894;DHT22;51343;51.396;6.656;2022-10-16T02:27:57;13.40;99.90
7894;DHT22;51343;51.396;6.656;2022-10-16T02:30:28;13.40;99.90
7894;DHT22;51343;51.396;6.656;2022-10-16T02:32:55;13.50;99.90
7894;DHT22;51343;51.396;6.656;2022-10-16T02:35:24;13.50;99.90
7894;DHT22;51343;51.396;6.656;2022-10-16T02:37:53;13.50;99.90
7894;DHT22;51343;51.396;6.656;2022-10-16T02:40:21;13.40;99.90
7894;DHT22;51343;51.396;6.656;2022-10-16T02:42:49;13.50;99.90
7894;DHT22;51343;51.396;6.656;2022-10-16T02:45:17;13.50;99.90
7894;DHT22;51343;51.396;6.656;2022-10-16T02:47:43;13.50;99.90
7894;DHT22;51343;51.396;6.656;2022-10-16T02:50:10;13.50;99.90
7894;DHT22;51343;51.396;6.656;2022-10-16T02:52:37;13.50;99.90
7894;DHT22;51343;51.396;6.656;2022-10-16T02:55:05;13.50;99.90
7894;DHT22;51343;51.396;6.656;2022-10-16T02:57:32;13.50;99.90
7894;DHT22;51343;51.396;6.656;2022-10-16T02:59:58;13.60;99.90
7894;DHT22;51343;51.396;6.656;2022-10-16T03:02:25;13.60;99.90
7894;DHT22;51343;51.396;6.656;2022-10-16T03:04:52;13.60;99.90
7894;DHT22;51343;51.396;6.656;2022-10-16T03:07:18;13.50;99.90
7894;DHT22;51343;51.396;6.656;2022-10-16T03:09:45;13.50;99.90
7894;DHT22;51343;51.396;6.656;2022-10-16T03:12:13;13.50;99.90
7894;DHT22;51343;51.396;6.656;2022-10-16T03:14:39;13.50;99.90
7894;DHT22;51343;51.396;6.656;2022-10-16T03:17:06;13.50;99.90
7894;DHT22;51343;51.396;6.656;2022-10-16T03:19:33;13.40;99.90
7894;DHT22;51343;51.396;6.656;2022-10-16T03:22:00;13.40;99.90
7894;DHT22;51343;51.396;6.656;2022-10-16T03:24:26;13.40;99.90
7894;DHT22;51343;51.396;6.656;2022-10-16T03:26:53;13.40;99.90
7894;DHT22;51343;51.396;6.656;2022-10-16T03:29:21;13.40;99.90
7894;DHT22;51343;51.396;6.656;2022-10-16T03:31:47;13.40;99.90
7894;DHT22;51343;51.396;6.656;2022-10-16T03:34:14;13.40;99.90
7894;DHT22;51343;51.396;6.656;2022-10-16T03:36:41;13.40;99.90
7894;DHT22;51343;51.396;6.656;2022-10-16T03:39:08;13.30;99.90
7894;DHT22;51343;51.396;6.656;2022-10-16T03:41:34;13.30;99.90
7894;DHT22;51343;51.396;6.656;2022-10-16T03:44:01;13.30;99.90
7894;DHT22;51343;51.396;6.656;2022-10-16T03:46:29;13.30;99.90
7894;DHT22;51343;51.396;6.656;2022-10-16T03:48:55;13.20;99.90
7894;DHT22;51343;51.396;6.656;2022-10-16T03:51:22;13.20;99.90
7894;DHT22;51343;51.396;6.656;2022-10-16T03:53:49;13.10;99.90
7894;DHT22;51343;51.396;6.656;2022-10-16T03:56:15;13.10;99.90
7894;DHT22;51343;51.396;6.656;2022-10-16T03:58:42;13.10;99.90
7894;DHT22;51343;51.396;6.656;2022-10-16T04:01:08;13.10;99.90
7894;DHT22;51343;51.396;6.656;2022-10-16T04:03:36;13.10;99.90
7894;DHT22;51343;51.396;6.656;2022-10-16T04:06:03;13.10;99.90
7894;DHT22;51343;51.396;6.656;2022-10-16T04:08:30;13.10;99.90
7894;DHT22;51343;51.396;6.656;2022-10-16T04:10:59;13.10;99.90
7894;DHT22;51343;51.396;6.656;2022-10-16T04:13:26;13.10;99.90
7894;DHT22;51343;51.396;6.656;2022-10-16T04:15:52;13.10;99.90
7894;DHT22;51343;51.396;6.656;2022-10-16T04:18:19;13.10;99.90
7894;DHT22;51343;51.396;6.656;2022-10-16T04:20:47;13.10;99.90
7894;DHT22;51343;51.396;6.656;2022-10-16T04:23:13;13.10;99.90
7894;DHT22;51343;51.396;6.656;2022-10-16T04:25:40;13.10;99.90
7894;DHT22;51343;51.396;6.656;2022-10-16T04:28:07;13.00;99.90
7894;DHT22;51343;51.396;6.656;2022-10-16T04:30:33;13.00;99.90
7894;DHT22;51343;51.396;6.656;2022-10-16T04:33:00;13.10;99.90
7894;DHT22;51343;51.396;6.656;2022-10-16T04:35:26;13.10;99.90
7894;DHT22;51343;51.396;6.656;2022-10-16T04:37:56;13.10;99.90
7894;DHT22;51343;51.396;6.656;2022-10-16T04:40:23;13.20;99.90
7894;DHT22;51343;51.396;6.656;2022-10-16T04:42:50;13.10;99.90
7894;DHT22;51343;51.396;6.656;2022-10-16T04:45:16;13.10;99.90
7894;DHT22;51343;51.396;6.656;2022-10-16T04:47:43;13.00;99.90
7894;DHT22;51343;51.396;6.656;2022-10-16T04:50:09;13.10;99.90
7894;DHT22;51343;51.396;6.656;2022-10-16T04:52:36;13.10;99.90
7894;DHT22;51343;51.396;6.656;2022-10-16T04:55:04;13.10;99.90
7894;DHT22;51343;51.396;6.656;2022-10-16T04:57:31;13.10;99.90
7894;DHT22;51343;51.396;6.656;2022-10-16T04:59:58;13.00;99.90
7894;DHT22;51343;51.396;6.656;2022-10-16T05:02:25;13.00;99.90
7894;DHT22;51343;51.396;6.656;2022-10-16T05:04:51;13.00;99.90
7894;DHT22;51343;51.396;6.656;2022-10-16T05:07:18;13.00;99.90
7894;DHT22;51343;51.396;6.656;2022-10-16T05:09:45;13.00;99.90
7894;DHT22;51343;51.396;6.656;2022-10-16T05:12:13;13.00;99.90
7894;DHT22;51343;51.396;6.656;2022-10-16T05:14:41;13.00;99.90
7894;DHT22;51343;51.396;6.656;2022-10-16T05:17:08;13.00;99.90
7894;DHT22;51343;51.396;6.656;2022-10-16T05:19:35;13.00;99.90
7894;DHT22;51343;51.396;6.656;2022-10-16T05:22:01;13.00;99.90
7894;DHT22;51343;51.396;6.656;2022-10-16T05:24:28;13.00;99.90
7894;DHT22;51343;51.396;6.656;2022-10-16T05:26:54;12.90;99.90
7894;DHT22;51343;51.396;6.656;2022-10-16T05:29:22;12.90;99.90
7894;DHT22;51343;51.396;6.656;2022-10-16T05:31:50;12.90;99.90
7894;DHT22;51343;51.396;6.656;2022-10-16T05:34:16;12.90;99.90
7894;DHT22;51343;51.396;6.656;2022-10-16T05:36:43;12.90;99.90
7894;DHT22;51343;51.396;6.656;2022-10-16T05:39:10;13.00;99.90
7894;DHT22;51343;51.396;6.656;2022-10-16T05:41:37;12.90;99.90
7894;DHT22;51343;51.396;6.656;2022-10-16T05:44:04;12.90;99.90
7894;DHT22;51343;51.396;6.656;2022-10-16T05:46:32;12.90;99.90
7894;DHT22;51343;51.396;6.656;2022-10-16T05:48:59;12.90;99.90
7894;DHT22;51343;51.396;6.656;2022-10-16T05:51:25;12.90;99.90
7894;DHT22;51343;51.396;6.656;2022-10-16T05:53:52;13.00;99.90
7894;DHT22;51343;51.396;6.656;2022-10-16T05:56:19;13.00;99.90
7894;DHT22;51343;51.396;6.656;2022-10-16T05:58:45;13.00;99.90
7894;DHT22;51343;51.396;6.656;2022-10-16T06:01:13;12.90;99.90
7894;DHT22;51343;51.396;6.656;2022-10-16T06:03:41;12.90;99.90
7894;DHT22;51343;51.396;6.656;2022-10-16T06:06:08;12.90;99.90
7894;DHT22;51343;51.396;6.656;2022-10-16T06:08:35;12.90;99.90
7894;DHT22;51343;51.396;6.656;2022-10-16T06:11:02;12.90;99.90
7894;DHT22;51343;51.396;6.656;2022-10-16T06:13:29;12.80;99.90
7894;DHT22;51343;51.396;6.656;2022-10-16T06:15:56;12.80;99.90
7894;DHT22;51343;51.396;6.656;2022-10-16T06:18:23;12.80;99.90
7894;DHT22;51343;51.396;6.656;2022-10-16T06:20:51;12.90;99.90
7894;DHT22;51343;51.396;6.656;2022-10-16T06:23:18;12.90;99.90
7894;DHT22;51343;51.396;6.656;2022-10-16T06:25:44;12.90;99.90
7894;DHT22;51343;51.396;6.656;2022-10-16T06:28:11;13.00;99.90
7894;DHT22;51343;51.396;6.656;2022-10-16T06:30:39;13.00;99.90
7894;DHT22;51343;51.396;6.656;2022-10-16T06:33:06;13.00;99.90
7894;DHT22;51343;51.396;6.656;2022-10-16T06:35:32;13.00;99.90
7894;DHT22;51343;51.396;6.656;2022-10-16T06:38:00;13.00;99.90
7894;DHT22;51343;51.396;6.656;2022-10-16T06:40:27;13.00;99.90
7894;DHT22;51343;51.396;6.656;2022-10-16T06:42:54;13.00;99.90
7894;DHT22;51343;51.396;6.656;2022-10-16T06:45:21;13.00;99.90
7894;DHT22;51343;51.396;6.656;2022-10-16T06:47:47;13.00;99.90
7894;DHT22;51343;51.396;6.656;2022-10-16T06:50:14;13.00;99.90
7894;DHT22;51343;51.396;6.656;2022-10-16T06:52:40;12.90;99.90
7894;DHT22;51343;51.396;6.656;2022-10-16T06:55:08;12.90;99.90
7894;DHT22;51343;51.396;6.656;2022-10-16T06:57:35;12.80;99.90
7894;DHT22;51343;51.396;6.656;2022-10-16T07:00:02;12.80;99.90
7894;DHT22;51343;51.396;6.656;2022-10-16T07:02:29;12.70;99.90
7894;DHT22;51343;51.396;6.656;2022-10-16T07:04:55;12.70;99.90
7894;DHT22;51343;51.396;6.656;2022-10-16T07:07:22;12.70;99.90
7894;DHT22;51343;51.396;6.656;2022-10-16T07:09:50;12.60;99.90
7894;DHT22;51343;51.396;6.656;2022-10-16T07:12:17;12.60;99.90
7894;DHT22;51343;51.396;6.656;2022-10-16T07:14:44;12.70;99.90
7894;DHT22;51343;51.396;6.656;2022-10-16T07:17:11;12.70;99.90
7894;DHT22;51343;51.396;6.656;2022-10-16T07:19:37;12.70;99.90
7894;DHT22;51343;51.396;6.656;2022-10-16T07:22:04;12.60;99.90
7894;DHT22;51343;51.396;6.656;2022-10-16T07:24:31;12.60;99.90
7894;DHT22;51343;51.396;6.656;2022-10-16T07:26:58;12.70;99.90
7894;DHT22;51343;51.396;6.656;2022-10-16T07:29:26;12.60;99.90
7894;DHT22;51343;51.396;6.656;2022-10-16T07:31:53;12.70;99.90
7894;DHT22;51343;51.396;6.656;2022-10-16T07:34:19;12.70;99.90
7894;DHT22;51343;51.396;6.656;2022-10-16T07:36:47;12.70;99.90
7894;DHT22;51343;51.396;6.656;2022-10-16T07:39:14;12.80;99.90
7894;DHT22;51343;51.396;6.656;2022-10-16T07:41:41;12.90;99.90
7894;DHT22;51343;51.396;6.656;2022-10-16T07:44:07;13.00;99.90
7894;DHT22;51343;51.396;6.656;2022-10-16T07:46:35;13.00;99.90
7894;DHT22;51343;51.396;6.656;2022-10-16T07:49:02;13.10;99.90
7894;DHT22;51343;51.396;6.656;2022-10-16T07:51:28;13.20;99.90
7894;DHT22;51343;51.396;6.656;2022-10-16T07:53:55;13.40;99.90
7894;DHT22;51343;51.396;6.656;2022-10-16T07:56:22;13.40;99.90
7894;DHT22;51343;51.396;6.656;2022-10-16T07:58:49;13.50;99.90
7894;DHT22;51343;51.396;6.656;2022-10-16T08:01:16;13.60;99.90
7894;DHT22;51343;51.396;6.656;2022-10-16T08:03:45;13.70;99.90
7894;DHT22;51343;51.396;6.656;2022-10-16T08:06:12;13.80;99.90
7894;DHT22;51343;51.396;6.656;2022-10-16T08:08:38;13.80;99.90
7894;DHT22;51343;51.396;6.656;2022-10-16T08:11:05;13.90;99.90
7894;DHT22;51343;51.396;6.656;2022-10-16T08:13:32;13.90;99.90
7894;DHT22;51343;51.396;6.656;2022-10-16T08:15:58;14.00;99.90
7894;DHT22;51343;51.396;6.656;2022-10-16T08:18:25;14.00;99.90
7894;DHT22;51343;51.396;6.656;2022-10-16T08:20:56;14.10;99.90
7894;DHT22;51343;51.396;6.656;2022-10-16T08:23:23;14.20;99.90
7894;DHT22;51343;51.396;6.656;2022-10-16T08:25:51;14.30;99.90
7894;DHT22;51343;51.396;6.656;2022-10-16T08:28:17;14.40;99.90
7894;DHT22;51343;51.396;6.656;2022-10-16T08:30:44;14.40;99.90
7894;DHT22;51343;51.396;6.656;2022-10-16T08:33:11;14.50;99.90
7894;DHT22;51343;51.396;6.656;2022-10-16T08:35:37;14.60;99.90
7894;DHT22;51343;51.396;6.656;2022-10-16T08:38:05;14.70;99.90
7894;DHT22;51343;51.396;6.656;2022-10-16T08:40:33;14.70;99.90
7894;DHT22;51343;51.396;6.656;2022-10-16T08:43:07;14.80;99.90
7894;DHT22;51343;51.396;6.656;2022-10-16T08:45:40;14.90;99.90
7894;DHT22;51343;51.396;6.656;2022-10-16T08:48:11;15.00;99.90
7894;DHT22;51343;51.396;6.656;2022-10-16T08:50:41;15.00;99.90
7894;DHT22;51343;51.396;6.656;2022-10-16T08:53:11;15.10;99.90
7894;DHT22;51343;51.396;6.656;2022-10-16T08:55:41;15.10;99.90
7894;DHT22;51343;51.396;6.656;2022-10-16T08:58:12;15.20;99.90
7894;DHT22;51343;51.396;6.656;2022-10-16T09:00:39;15.30;99.90
7894;DHT22;51343;51.396;6.656;2022-10-16T09:03:09;15.40;99.90
7894;DHT22;51343;51.396;6.656;2022-10-16T09:05:46;15.40;99.90
7894;DHT22;51343;51.396;6.656;2022-10-16T09:08:18;15.50;99.90
7894;DHT22;51343;51.396;6.656;2022-10-16T09:10:50;15.50;99.90
7894;DHT22;51343;51.396;6.656;2022-10-16T09:13:20;15.60;99.90
7894;DHT22;51343;51.396;6.656;2022-10-16T09:15:48;15.70;99.90
7894;DHT22;51343;51.396;6.656;2022-10-16T09:18:19;15.80;99.90
7894;DHT22;51343;51.396;6.656;2022-10-16T09:20:49;15.90;99.90
7894;DHT22;51343;51.396;6.656;2022-10-16T09:23:19;15.90;99.90
7894;DHT22;51343;51.396;6.656;2022-10-16T09:25:48;15.90;99.90
7894;DHT22;51343;51.396;6.656;2022-10-16T09:28:16;16.00;99.90
7894;DHT22;51343;51.396;6.656;2022-10-16T09:30:43;16.10;99.90
7894;DHT22;51343;51.396;6.656;2022-10-16T09:33:10;16.10;99.90
7894;DHT22;51343;51.396;6.656;2022-10-16T09:35:38;16.20;99.90
7894;DHT22;51343;51.396;6.656;2022-10-16T09:38:05;16.20;99.90
7894;DHT22;51343;51.396;6.656;2022-10-16T09:40:34;16.20;99.90
7894;DHT22;51343;51.396;6.656;2022-10-16T09:43:03;16.30;99.90
7894;DHT22;51343;51.396;6.656;2022-10-16T09:45:32;16.40;99.90
7894;DHT22;51343;51.396;6.656;2022-10-16T09:48:01;16.50;99.90
7894;DHT22;51343;51.396;6.656;2022-10-16T09:50:27;16.50;99.90
7894;DHT22;51343;51.396;6.656;2022-10-16T09:53:04;16.60;99.90
7894;DHT22;51343;51.396;6.656;2022-10-16T09:55:31;16.70;99.90
7894;DHT22;51343;51.396;6.656;2022-10-16T09:57:59;16.90;99.90
7894;DHT22;51343;51.396;6.656;2022-10-16T10:00:25;16.90;99.90
7894;DHT22;51343;51.396;6.656;2022-10-16T10:02:52;17.10;99.90
7894;DHT22;51343;51.396;6.656;2022-10-16T10:05:20;17.20;99.90
7894;DHT22;51343;51.396;6.656;2022-10-16T10:07:52;17.30;99.90
7894;DHT22;51343;51.396;6.656;2022-10-16T10:10:20;17.40;99.90
7894;DHT22;51343;51.396;6.656;2022-10-16T10:12:47;17.60;99.90
7894;DHT22;51343;51.396;6.656;2022-10-16T10:15:15;17.60;99.90
7894;DHT22;51343;51.396;6.656;2022-10-16T10:17:45;17.70;99.90
7894;DHT22;51343;51.396;6.656;2022-10-16T10:20:18;17.80;99.90
7894;DHT22;51343;51.396;6.656;2022-10-16T10:22:47;17.90;99.90
7894;DHT22;51343;51.396;6.656;2022-10-16T10:25:35;18.00;99.90
7894;DHT22;51343;51.396;6.656;2022-10-16T10:28:21;18.10;99.90
7894;DHT22;51343;51.396;6.656;2022-10-16T10:30:56;18.40;99.90
7894;DHT22;51343;51.396;6.656;2022-10-16T10:33:25;18.60;99.90
7894;DHT22;51343;51.396;6.656;2022-10-16T10:35:55;18.70;99.90
7894;DHT22;51343;51.396;6.656;2022-10-16T10:38:27;18.80;99.90
7894;DHT22;51343;51.396;6.656;2022-10-16T10:40:58;18.90;99.90
7894;DHT22;51343;51.396;6.656;2022-10-16T10:43:32;18.90;99.90
7894;DHT22;51343;51.396;6.656;2022-10-16T10:46:06;19.00;99.90
7894;DHT22;51343;51.396;6.656;2022-10-16T10:48:47;19.10;99.90
7894;DHT22;51343;51.396;6.656;2022-10-16T10:51:18;19.10;99.90
7894;DHT22;51343;51.396;6.656;2022-10-16T10:53:47;19.10;99.90
7894;DHT22;51343;51.396;6.656;2022-10-16T10:56:21;19.20;99.90
7894;DHT22;51343;51.396;6.656;2022-10-16T10:59:00;19.00;99.90
7894;DHT22;51343;51.396;6.656;2022-10-16T11:01:32;18.80;99.90
7894;DHT22;51343;51.396;6.656;2022-10-16T11:04:17;19.00;99.90
7894;DHT22;51343;51.396;6.656;2022-10-16T11:06:48;19.00;99.90
7894;DHT22;51343;51.396;6.656;2022-10-16T11:09:16;19.30;99.90
7894;DHT22;51343;51.396;6.656;2022-10-16T11:11:44;19.60;99.90
7894;DHT22;51343;51.396;6.656;2022-10-16T11:14:14;20.00;99.90
7894;DHT22;51343;51.396;6.656;2022-10-16T11:16:44;20.30;99.90
7894;DHT22;51343;51.396;6.656;2022-10-16T11:19:17;20.50;99.90
7894;DHT22;51343;51.396;6.656;2022-10-16T11:21:46;21.00;99.90
7894;DHT22;51343;51.396;6.656;2022-10-16T11:24:16;21.40;99.90
7894;DHT22;51343;51.396;6.656;2022-10-16T11:26:45;21.70;99.90
7894;DHT22;51343;51.396;6.656;2022-10-16T11:29:15;22.10;99.40
7894;DHT22;51343;51.396;6.656;2022-10-16T11:31:46;21.70;96.00
7894;DHT22;51343;51.396;6.656;2022-10-16T11:34:17;22.00;95.10
7894;DHT22;51343;51.396;6.656;2022-10-16T11:36:49;22.10;94.40
7894;DHT22;51343;51.396;6.656;2022-10-16T11:39:19;22.40;94.30
7894;DHT22;51343;51.396;6.656;2022-10-16T11:41:47;22.70;85.70
7894;DHT22;51343;51.396;6.656;2022-10-16T11:44:18;22.70;85.40
7894;DHT22;51343;51.396;6.656;2022-10-16T11:46:48;22.90;73.00
7894;DHT22;51343;51.396;6.656;2022-10-16T11:49:18;23.10;64.30
7894;DHT22;51343;51.396;6.656;2022-10-16T11:51:48;23.10;68.60
7894;DHT22;51343;51.396;6.656;2022-10-16T11:54:17;22.50;68.50
7894;DHT22;51343;51.396;6.656;2022-10-16T11:56:46;22.00;82.60
7894;DHT22;51343;51.396;6.656;2022-10-16T11:59:16;21.80;86.60
7894;DHT22;51343;51.396;6.656;2022-10-16T12:01:47;21.80;92.80
7894;DHT22;51343;51.396;6.656;2022-10-16T12:04:18;22.00;84.10
7894;DHT22;51343;51.396;6.656;2022-10-16T12:06:48;22.20;85.70
7894;DHT22;51343;51.396;6.656;2022-10-16T12:09:18;22.50;89.50
7894;DHT22;51343;51.396;6.656;2022-10-16T12:11:46;23.10;77.80
7894;DHT22;51343;51.396;6.656;2022-10-16T12:14:20;23.10;76.60
7894;DHT22;51343;51.396;6.656;2022-10-16T12:16:52;22.50;77.70
7894;DHT22;51343;51.396;6.656;2022-10-16T12:19:19;21.80;81.80
7894;DHT22;51343;51.396;6.656;2022-10-16T12:21:46;21.20;94.70
7894;DHT22;51343;51.396;6.656;2022-10-16T12:24:27;20.70;99.90
7894;DHT22;51343;51.396;6.656;2022-10-16T12:26:56;20.30;99.90
7894;DHT22;51343;51.396;6.656;2022-10-16T12:29:26;20.00;99.90
7894;DHT22;51343;51.396;6.656;2022-10-16T12:31:57;20.10;99.90
7894;DHT22;51343;51.396;6.656;2022-10-16T12:34:26;20.00;99.90
7894;DHT22;51343;51.396;6.656;2022-10-16T12:36:53;19.90;99.90
7894;DHT22;51343;51.396;6.656;2022-10-16T12:39:21;20.10;99.90
7894;DHT22;51343;51.396;6.656;2022-10-16T12:41:48;20.90;99.90
7894;DHT22;51343;51.396;6.656;2022-10-16T12:44:26;21.10;99.90
7894;DHT22;51343;51.396;6.656;2022-10-16T12:47:00;20.90;99.90
7894;DHT22;51343;51.396;6.656;2022-10-16T12:49:31;20.90;99.90
7894;DHT22;51343;51.396;6.656;2022-10-16T12:51:58;20.70;99.90
7894;DHT22;51343;51.396;6.656;2022-10-16T12:54:25;21.40;99.00
7894;DHT22;51343;51.396;6.656;2022-10-16T12:56:58;22.10;94.40
7894;DHT22;51343;51.396;6.656;2022-10-16T12:59:32;22.60;80.30
7894;DHT22;51343;51.396;6.656;2022-10-16T13:02:11;22.40;76.10
7894;DHT22;51343;51.396;6.656;2022-10-16T13:04:45;21.60;88.00
7894;DHT22;51343;51.396;6.656;2022-10-16T13:07:24;20.90;90.80
7894;DHT22;51343;51.396;6.656;2022-10-16T13:09:58;20.50;99.90
7894;DHT22;51343;51.396;6.656;2022-10-16T13:12:42;20.60;99.90
7894;DHT22;51343;51.396;6.656;2022-10-16T13:15:16;21.00;99.90
7894;DHT22;51343;51.396;6.656;2022-10-16T13:17:49;21.10;95.80
7894;DHT22;51343;51.396;6.656;2022-10-16T13:20:20;21.00;98.60
7894;DHT22;51343;51.396;6.656;2022-10-16T13:22:49;21.20;96.70
7894;DHT22;51343;51.396;6.656;2022-10-16T13:25:20;21.40;93.40
7894;DHT22;51343;51.396;6.656;2022-10-16T13:27:50;21.10;98.00
7894;DHT22;51343;51.396;6.656;2022-10-16T13:30:19;20.70;96.90
7894;DHT22;51343;51.396;6.656;2022-10-16T13:32:49;20.50;99.90
7894;DHT22;51343;51.396;6.656;2022-10-16T13:35:20;20.30;99.90
7894;DHT22;51343;51.396;6.656;2022-10-16T13:37:47;20.20;99.90
7894;DHT22;51343;51.396;6.656;2022-10-16T13:40:18;20.00;99.90
7894;DHT22;51343;51.396;6.656;2022-10-16T13:42:45;19.80;99.90
7894;DHT22;51343;51.396;6.656;2022-10-16T13:45:18;19.60;99.90
7894;DHT22;51343;51.396;6.656;2022-10-16T13:47:45;19.40;99.90
7894;DHT22;51343;51.396;6.656;2022-10-16T13:50:14;19.50;99.90
7894;DHT22;51343;51.396;6.656;2022-10-16T13:52:41;19.40;99.90
7894;DHT22;51343;51.396;6.656;2022-10-16T13:55:10;19.40;99.90
7894;DHT22;51343;51.396;6.656;2022-10-16T13:57:37;19.50;99.90
7894;DHT22;51343;51.396;6.656;2022-10-16T14:00:05;19.60;99.90
7894;DHT22;51343;51.396;6.656;2022-10-16T14:02:43;19.60;99.90
7894;DHT22;51343;51.396;6.656;2022-10-16T14:05:09;19.50;99.90
7894;DHT22;51343;51.396;6.656;2022-10-16T14:07:40;19.50;99.90
7894;DHT22;51343;51.396;6.656;2022-10-16T14:10:18;19.40;99.90
7894;DHT22;51343;51.396;6.656;2022-10-16T14:12:45;19.20;99.90
7894;DHT22;51343;51.396;6.656;2022-10-16T14:15:15;19.10;99.90
7894;DHT22;51343;51.396;6.656;2022-10-16T14:17:43;19.00;99.90
7894;DHT22;51343;51.396;6.656;2022-10-16T14:20:12;19.00;99.90
7894;DHT22;51343;51.396;6.656;2022-10-16T14:22:42;18.90;99.90
7894;DHT22;51343;51.396;6.656;2022-10-16T14:25:25;18.80;99.90
7894;DHT22;51343;51.396;6.656;2022-10-16T14:27:56;18.70;99.90
7894;DHT22;51343;51.396;6.656;2022-10-16T14:30:23;18.60;99.90
7894;DHT22;51343;51.396;6.656;2022-10-16T14:32:53;18.60;99.90
7894;DHT22;51343;51.396;6.656;2022-10-16T14:35:25;18.60;99.90
7894;DHT22;51343;51.396;6.656;2022-10-16T14:37:53;18.60;99.90
7894;DHT22;51343;51.396;6.656;2022-10-16T14:40:21;18.50;99.90
7894;DHT22;51343;51.396;6.656;2022-10-16T14:42:49;18.40;99.90
7894;DHT22;51343;51.396;6.656;2022-10-16T14:45:18;18.30;99.90
7894;DHT22;51343;51.396;6.656;2022-10-16T14:47:50;18.30;99.90
7894;DHT22;51343;51.396;6.656;2022-10-16T14:50:18;18.20;99.90
7894;DHT22;51343;51.396;6.656;2022-10-16T14:52:45;18.20;99.90
7894;DHT22;51343;51.396;6.656;2022-10-16T14:55:13;18.20;99.90
7894;DHT22;51343;51.396;6.656;2022-10-16T14:57:40;18.20;99.90
7894;DHT22;51343;51.396;6.656;2022-10-16T15:00:09;18.20;99.90
7894;DHT22;51343;51.396;6.656;2022-10-16T15:02:40;18.10;99.90
7894;DHT22;51343;51.396;6.656;2022-10-16T15:05:10;18.00;99.90
7894;DHT22;51343;51.396;6.656;2022-10-16T15:07:38;17.90;99.90
7894;DHT22;51343;51.396;6.656;2022-10-16T15:10:05;17.80;99.90
7894;DHT22;51343;51.396;6.656;2022-10-16T15:12:33;17.70;99.90
7894;DHT22;51343;51.396;6.656;2022-10-16T15:14:59;17.60;99.90
7894;DHT22;51343;51.396;6.656;2022-10-16T15:17:26;17.50;99.90
7894;DHT22;51343;51.396;6.656;2022-10-16T15:19:52;17.50;99.90
7894;DHT22;51343;51.396;6.656;2022-10-16T15:22:19;17.30;99.90
7894;DHT22;51343;51.396;6.656;2022-10-16T15:27:52;17.30;99.90
7894;DHT22;51343;51.396;6.656;2022-10-16T15:30:19;17.10;99.90
7894;DHT22;51343;51.396;6.656;2022-10-16T15:32:45;17.10;99.90
7894;DHT22;51343;51.396;6.656;2022-10-16T15:38:15;17.00;99.90
7894;DHT22;51343;51.396;6.656;2022-10-16T15:40:42;17.00;99.90
7894;DHT22;51343;51.396;6.656;2022-10-16T15:43:10;16.90;99.90
7894;DHT22;51343;51.396;6.656;2022-10-16T15:45:36;16.90;99.90
7894;DHT22;51343;51.396;6.656;2022-10-16T15:48:03;16.80;99.90
7894;DHT22;51343;51.396;6.656;2022-10-16T15:53:33;16.70;99.90
7894;DHT22;51343;51.396;6.656;2022-10-16T15:56:01;16.70;99.90
7894;DHT22;51343;51.396;6.656;2022-10-16T15:58:28;16.60;99.90
7894;DHT22;51343;51.396;6.656;2022-10-16T16:00:55;16.60;99.90
7894;DHT22;51343;51.396;6.656;2022-10-16T16:03:22;16.50;99.90